METAR Data
IDs: Format: Raw Decoded Include TAF

Data at: 1001 UTC 13 Aug 2022

EDLP 130950Z 10007KT 030V150 CAVOK 27/09 Q1019